createdAt,value
2024-03-12T00:00:18.750Z,49.47
2024-03-12T00:02:48.144Z,46.63
2024-03-12T00:05:22.170Z,44.77
2024-03-12T00:07:49.916Z,47.83
2024-03-12T00:10:18.415Z,41.87
2024-03-12T00:12:49.358Z,42.37
2024-03-12T00:15:19.328Z,44.23
2024-03-12T00:17:46.116Z,40.03
2024-03-12T00:20:19.512Z,42.17
2024-03-12T00:22:48.455Z,43.07
2024-03-12T00:25:16.150Z,43.67
2024-03-12T00:27:46.410Z,44.47
2024-03-12T00:30:14.475Z,44.13
2024-03-12T00:32:41.780Z,44.13
2024-03-12T00:35:11.543Z,47.30
2024-03-12T00:37:39.671Z,45.63
2024-03-12T00:40:12.787Z,46.80
2024-03-12T00:42:42.844Z,44.27
2024-03-12T00:45:12.742Z,45.17
2024-03-12T00:47:39.819Z,44.37
2024-03-12T00:50:08.624Z,45.87
2024-03-12T00:52:37.395Z,47.20
2024-03-12T00:55:05.582Z,47.40
2024-03-12T00:57:35.231Z,45.27
2024-03-12T01:00:03.042Z,47.90
2024-03-12T01:02:33.319Z,45.97
2024-03-12T01:05:00.839Z,44.13
2024-03-12T01:07:27.193Z,44.30
2024-03-12T01:09:53.703Z,48.73
2024-03-12T01:12:20.545Z,44.10
2024-03-12T01:14:48.479Z,45.90
2024-03-12T01:17:15.390Z,44.77
2024-03-12T01:19:42.755Z,43.37
2024-03-12T01:22:12.139Z,44.03
2024-03-12T01:24:41.763Z,48.17
2024-03-12T01:27:08.415Z,45.13
2024-03-12T01:29:34.777Z,46.20
2024-03-12T01:32:01.539Z,43.33
2024-03-12T01:34:28.208Z,44.93
2024-03-12T01:36:54.869Z,42.70
2024-03-12T01:39:27.430Z,43.80
2024-03-12T01:41:53.916Z,48.60
2024-03-12T01:44:20.582Z,44.13
2024-03-12T01:46:47.488Z,85.10
2024-03-12T01:49:14.356Z,59.90
2024-03-12T01:51:40.765Z,49.47
2024-03-12T01:54:07.132Z,46.43
2024-03-12T01:56:33.524Z,46.63
2024-03-12T01:58:59.967Z,41.10
2024-03-12T02:01:26.927Z,44.50
2024-03-12T02:03:53.555Z,46.10
2024-03-12T02:06:20.770Z,48.27
2024-03-12T02:08:50.979Z,47.60
2024-03-12T02:11:17.959Z,43.43
2024-03-12T02:13:44.457Z,45.83
2024-03-12T02:16:11.373Z,46.20
2024-03-12T02:18:40.433Z,42.77
2024-03-12T02:21:06.960Z,44.90
2024-03-12T02:23:43.899Z,66.20
2024-03-12T02:26:10.990Z,47.90
2024-03-12T02:28:38.161Z,43.20
2024-03-12T02:31:08.692Z,47.17
2024-03-12T02:33:35.283Z,45.93
2024-03-12T02:36:01.686Z,60.13
2024-03-12T02:38:28.159Z,73.93
2024-03-12T02:40:54.974Z,54.40
2024-03-12T02:43:21.353Z,50.00
2024-03-12T02:45:48.200Z,51.53
2024-03-12T02:48:14.672Z,85.67
2024-03-12T02:50:41.303Z,50.47
2024-03-12T02:53:11.861Z,44.93
2024-03-12T02:55:38.276Z,45.73
2024-03-12T02:58:05.568Z,60.73
2024-03-12T03:00:32.643Z,43.60
2024-03-12T03:02:59.065Z,47.50
2024-03-12T03:05:25.512Z,71.87
2024-03-12T03:07:51.867Z,50.70
2024-03-12T03:10:18.373Z,45.73
2024-03-12T03:12:44.836Z,82.87
2024-03-12T03:15:14.951Z,47.53
2024-03-12T03:17:43.495Z,52.53
2024-03-12T03:20:13.389Z,47.33
2024-03-12T03:22:43.011Z,52.93
2024-03-12T03:25:10.564Z,58.37
2024-03-12T03:27:36.997Z,53.93
2024-03-12T03:30:04.577Z,72.23
2024-03-12T03:32:31.475Z,66.23
2024-03-12T03:34:57.911Z,53.83
2024-03-12T03:37:27.733Z,72.60
2024-03-12T03:39:54.661Z,68.43
2024-03-12T03:42:21.210Z,61.53
2024-03-12T03:44:47.573Z,71.43
2024-03-12T03:47:13.915Z,64.53
2024-03-12T03:49:40.757Z,48.40
2024-03-12T03:52:07.208Z,47.30
2024-03-12T03:54:33.705Z,48.70
2024-03-12T03:57:00.171Z,51.77
2024-03-12T03:59:27.785Z,50.97
2024-03-12T04:01:56.300Z,50.03
2024-03-12T04:04:23.980Z,50.57
2024-03-12T04:06:54.965Z,50.83
2024-03-12T04:09:21.898Z,67.60
2024-03-12T04:11:51.236Z,63.47
2024-03-12T04:14:19.056Z,70.93
2024-03-12T04:16:45.874Z,48.93
2024-03-12T04:19:12.348Z,46.30
2024-03-12T04:21:39.235Z,50.67
2024-03-12T04:24:06.572Z,50.07
2024-03-12T04:26:33.657Z,47.27
2024-03-12T04:29:00.027Z,59.53
2024-03-12T04:31:26.845Z,61.40
2024-03-12T04:33:54.426Z,53.87
2024-03-12T04:36:24.055Z,55.27
2024-03-12T04:38:53.521Z,57.47
2024-03-12T04:41:22.797Z,63.30
2024-03-12T04:43:52.257Z,61.23
2024-03-12T04:46:19.320Z,52.90
2024-03-12T04:48:46.347Z,56.27
2024-03-12T04:51:12.798Z,57.70
2024-03-12T04:53:39.136Z,86.27
2024-03-12T04:56:05.842Z,74.13
2024-03-12T04:58:32.201Z,58.17
2024-03-12T05:00:58.691Z,53.00
2024-03-12T05:03:25.151Z,53.47
2024-03-12T05:05:51.792Z,53.10
2024-03-12T05:08:19.464Z,50.67
2024-03-12T05:10:46.570Z,44.70
2024-03-12T05:13:12.992Z,47.60
2024-03-12T05:15:40.498Z,49.57
2024-03-12T05:18:07.042Z,51.07
2024-03-12T05:20:34.803Z,48.77
2024-03-12T05:23:03.285Z,47.90
2024-03-12T05:25:40.494Z,50.70
2024-03-12T05:28:08.730Z,52.77
2024-03-12T05:30:39.233Z,48.40
2024-03-12T05:33:10.876Z,42.37
2024-03-12T05:35:39.659Z,48.23
2024-03-12T05:38:12.292Z,48.83
2024-03-12T05:40:57.992Z,51.30
2024-03-12T05:43:42.925Z,46.17
2024-03-12T05:46:27.959Z,47.10
2024-03-12T05:48:54.523Z,52.10
2024-03-12T05:51:21.335Z,50.57
2024-03-12T05:53:48.220Z,51.70
2024-03-12T05:56:17.072Z,47.60
2024-03-12T05:58:46.722Z,50.80
2024-03-12T06:01:13.356Z,51.50
2024-03-12T06:03:40.374Z,46.10
2024-03-12T06:06:08.586Z,49.27
2024-03-12T06:08:36.320Z,47.60
2024-03-12T06:11:02.985Z,45.67
2024-03-12T06:13:29.398Z,47.37
2024-03-12T06:15:55.943Z,46.07
2024-03-12T06:18:24.177Z,49.17
2024-03-12T06:20:51.980Z,47.60
2024-03-12T06:23:21.304Z,39.10
2024-03-12T06:25:47.877Z,43.33
2024-03-12T06:28:15.814Z,46.47
2024-03-12T06:30:44.257Z,47.37
2024-03-12T06:33:10.812Z,43.97
2024-03-12T06:35:37.192Z,47.13
2024-03-12T06:38:07.060Z,43.63
2024-03-12T06:40:33.717Z,47.60
2024-03-12T06:43:00.897Z,47.07
2024-03-12T06:45:28.353Z,44.37
2024-03-12T06:47:57.078Z,42.70
2024-03-12T06:50:26.999Z,44.07
2024-03-12T06:52:54.212Z,42.77
2024-03-12T06:55:24.860Z,42.80
2024-03-12T06:58:05.363Z,38.97
2024-03-12T07:00:39.294Z,36.63
2024-03-12T07:03:06.268Z,33.80
2024-03-12T07:05:37.373Z,41.20
2024-03-12T07:08:07.222Z,43.50
2024-03-12T07:10:36.712Z,35.27
2024-03-12T07:13:05.832Z,38.43
2024-03-12T07:15:35.238Z,36.63
2024-03-12T07:18:03.692Z,36.20
2024-03-12T07:20:31.033Z,35.87
2024-03-12T07:23:00.433Z,36.80
2024-03-12T07:25:32.340Z,37.53
2024-03-12T07:28:00.369Z,37.37
2024-03-12T07:30:26.964Z,34.10
2024-03-12T07:32:54.595Z,37.03
2024-03-12T07:35:21.330Z,35.60
2024-03-12T07:37:47.791Z,34.83
2024-03-12T07:40:16.707Z,34.13
2024-03-12T07:42:45.049Z,36.23
2024-03-12T07:45:12.180Z,36.63
2024-03-12T07:47:41.531Z,36.43
2024-03-12T07:50:12.648Z,34.03
2024-03-12T07:52:39.278Z,32.90
2024-03-12T07:55:07.107Z,35.33
2024-03-12T07:57:33.701Z,34.17
2024-03-12T08:00:00.830Z,34.43
2024-03-12T08:02:27.370Z,33.60
2024-03-12T08:04:53.758Z,36.17
2024-03-12T08:07:20.597Z,34.87
2024-03-12T08:09:50.199Z,34.43
2024-03-12T08:12:18.173Z,33.40
2024-03-12T08:14:45.274Z,35.50
2024-03-12T08:17:15.955Z,35.47
2024-03-12T08:19:44.213Z,33.17
2024-03-12T08:22:11.002Z,33.43
2024-03-12T08:24:40.973Z,35.50
2024-03-12T08:27:08.105Z,31.50
2024-03-12T08:29:34.696Z,32.43
2024-03-12T08:32:01.686Z,34.17
2024-03-12T08:34:28.328Z,34.77
2024-03-12T08:36:56.745Z,34.77
2024-03-12T08:39:23.556Z,35.83
2024-03-12T08:41:50.255Z,33.93
2024-03-12T08:44:16.631Z,35.20
2024-03-12T08:46:43.272Z,35.97
2024-03-12T08:49:12.126Z,35.10
2024-03-12T08:51:40.396Z,34.37
2024-03-12T08:54:07.726Z,34.10
2024-03-12T08:56:36.561Z,33.23
2024-03-12T08:59:03.919Z,33.27
2024-03-12T09:01:30.410Z,34.20
2024-03-12T09:03:57.252Z,34.23
2024-03-12T09:06:23.698Z,30.87
2024-03-12T09:08:51.765Z,31.83
2024-03-12T09:11:18.983Z,31.83
2024-03-12T09:13:46.640Z,32.73
2024-03-12T09:16:14.074Z,31.87
2024-03-12T09:18:44.643Z,30.57
2024-03-12T09:21:11.795Z,32.70
2024-03-12T09:23:45.215Z,29.47
2024-03-12T09:26:19.694Z,30.43
2024-03-12T09:28:46.232Z,29.73
2024-03-12T09:31:12.627Z,29.77
2024-03-12T09:33:39.221Z,30.13
2024-03-12T09:36:05.965Z,29.10
2024-03-12T09:38:32.815Z,30.63
2024-03-12T09:41:00.800Z,29.40
2024-03-12T09:43:31.903Z,30.20
2024-03-12T09:45:58.294Z,31.07
2024-03-12T09:48:25.041Z,32.13
2024-03-12T09:50:51.526Z,31.97
2024-03-12T09:53:18.805Z,30.27
2024-03-12T09:55:48.606Z,32.10
2024-03-12T09:58:15.130Z,32.43
2024-03-12T10:00:42.581Z,32.03
2024-03-12T10:03:09.626Z,30.07
2024-03-12T10:05:36.005Z,30.50
2024-03-12T10:08:14.470Z,31.43
2024-03-12T10:10:42.048Z,31.50
2024-03-12T10:13:18.908Z,31.90
2024-03-12T10:16:00.328Z,32.37
2024-03-12T10:18:28.650Z,30.77
2024-03-12T10:20:59.468Z,30.40
2024-03-12T10:23:27.746Z,30.93
2024-03-12T10:26:10.827Z,30.07
2024-03-12T10:28:40.678Z,29.33
2024-03-12T10:31:10.279Z,29.00
2024-03-12T10:33:39.092Z,31.87
2024-03-12T10:36:05.816Z,30.37
2024-03-12T10:38:36.493Z,32.40
2024-03-12T10:41:22.328Z,32.37
2024-03-12T10:43:56.165Z,30.33
2024-03-12T10:46:23.866Z,31.20
2024-03-12T10:48:51.787Z,31.83
2024-03-12T10:51:20.162Z,30.30
2024-03-12T10:53:50.669Z,29.63
2024-03-12T10:56:20.279Z,32.67
2024-03-12T10:58:50.475Z,30.43
2024-03-12T11:01:20.809Z,35.90
2024-03-12T11:03:49.115Z,30.67
2024-03-12T11:06:15.750Z,32.37
2024-03-12T11:08:46.703Z,29.57
2024-03-12T11:11:15.063Z,30.33
2024-03-12T11:13:41.937Z,30.50
2024-03-12T11:16:14.610Z,28.07
2024-03-12T11:18:41.439Z,30.77
2024-03-12T11:21:31.829Z,28.73
2024-03-12T11:23:58.808Z,27.80
2024-03-12T11:28:59.768Z,29.47
2024-03-12T11:31:35.991Z,29.27
2024-03-12T11:34:02.386Z,28.60
2024-03-12T11:36:41.444Z,27.90
2024-03-12T11:39:16.716Z,31.40
2024-03-12T11:42:02.128Z,28.30
2024-03-12T11:44:46.136Z,28.83
2024-03-12T11:47:29.786Z,28.57
2024-03-12T11:49:56.873Z,28.53
2024-03-12T11:52:23.622Z,30.80
2024-03-12T11:54:50.116Z,30.40
2024-03-12T11:57:31.174Z,30.57
2024-03-12T11:59:58.948Z,28.80
2024-03-12T12:02:27.557Z,30.07
2024-03-12T12:04:55.690Z,28.30
2024-03-12T12:07:23.268Z,28.77
2024-03-12T12:09:50.905Z,29.33
2024-03-12T12:12:18.599Z,29.30
2024-03-12T12:14:45.820Z,30.10
2024-03-12T12:17:12.628Z,29.10
2024-03-12T12:19:43.036Z,29.57
2024-03-12T12:22:09.965Z,29.17
2024-03-12T12:24:40.274Z,29.53
2024-03-12T12:27:07.195Z,28.47
2024-03-12T12:29:34.909Z,29.00
2024-03-12T12:32:01.508Z,32.10
2024-03-12T12:34:29.504Z,30.53
2024-03-12T12:36:57.111Z,32.27
2024-03-12T12:39:30.011Z,30.03
2024-03-12T12:42:03.273Z,30.97
2024-03-12T12:44:29.806Z,30.37
2024-03-12T12:46:56.244Z,29.00
2024-03-12T12:49:23.758Z,29.60
2024-03-12T12:51:51.151Z,28.60
2024-03-12T12:54:21.276Z,28.77
2024-03-12T12:56:47.903Z,27.80
2024-03-12T12:59:15.896Z,28.27
2024-03-12T13:01:43.450Z,27.40
2024-03-12T13:04:20.978Z,28.57
2024-03-12T13:06:47.515Z,28.60
2024-03-12T13:09:33.845Z,27.17
2024-03-12T13:12:01.552Z,26.40
2024-03-12T13:14:28.025Z,25.60
2024-03-12T13:16:55.087Z,25.40
2024-03-12T13:19:23.322Z,26.63
2024-03-12T13:21:50.152Z,26.30
2024-03-12T13:24:16.566Z,26.97
2024-03-12T13:26:43.065Z,28.67
2024-03-12T13:29:09.449Z,28.30
2024-03-12T13:31:36.336Z,27.53
2024-03-12T13:34:02.755Z,28.10
2024-03-12T13:36:29.159Z,33.37
2024-03-12T13:38:56.159Z,28.17
2024-03-12T13:41:26.135Z,28.47
2024-03-12T13:43:53.380Z,29.10
2024-03-12T13:46:20.064Z,27.77
2024-03-12T13:48:47.977Z,29.10
2024-03-12T13:51:15.252Z,28.20
2024-03-12T13:53:43.239Z,28.50
2024-03-12T13:56:12.695Z,27.30
2024-03-12T13:58:41.684Z,26.80
2024-03-12T14:01:12.698Z,28.23
2024-03-12T14:03:41.208Z,27.73
2024-03-12T14:06:10.205Z,27.90
2024-03-12T14:08:37.146Z,26.67
2024-03-12T14:11:03.992Z,28.37
2024-03-12T14:13:32.468Z,26.60
2024-03-12T14:15:59.573Z,27.77
2024-03-12T14:18:27.619Z,26.10
2024-03-12T14:20:55.864Z,26.50
2024-03-12T14:23:22.637Z,28.40
2024-03-12T14:25:50.144Z,27.90
2024-03-12T14:28:16.935Z,26.93
2024-03-12T14:30:45.598Z,28.47
2024-03-12T14:33:12.832Z,28.70
2024-03-12T14:35:39.370Z,29.17
2024-03-12T14:38:05.746Z,27.73
2024-03-12T14:40:32.142Z,28.10
2024-03-12T14:42:59.051Z,28.33
2024-03-12T14:45:25.541Z,28.30
2024-03-12T14:47:52.303Z,28.40
2024-03-12T14:50:19.004Z,28.27
2024-03-12T14:52:46.828Z,28.80
2024-03-12T14:55:13.340Z,27.93
2024-03-12T14:57:39.852Z,28.30
2024-03-12T15:00:11.303Z,28.53
2024-03-12T15:02:38.390Z,27.13
2024-03-12T15:05:11.749Z,28.90
2024-03-12T15:07:40.354Z,28.73
2024-03-12T15:10:09.792Z,28.50
2024-03-12T15:12:42.344Z,28.87
2024-03-12T15:15:13.295Z,29.43
2024-03-12T15:17:41.201Z,30.07
2024-03-12T15:20:12.487Z,29.80
2024-03-12T15:22:39.114Z,29.43
2024-03-12T15:25:11.966Z,29.37
2024-03-12T15:27:43.000Z,29.20
2024-03-12T15:30:10.055Z,29.90
2024-03-12T15:32:40.290Z,30.00
2024-03-12T15:35:07.467Z,29.07
2024-03-12T15:37:33.998Z,30.03
2024-03-12T15:40:01.232Z,29.57
2024-03-12T15:42:29.137Z,29.77
2024-03-12T15:45:05.798Z,29.03
2024-03-12T15:47:35.721Z,29.73
2024-03-12T15:50:02.575Z,28.90
2024-03-12T15:52:29.098Z,29.73
2024-03-12T15:54:55.500Z,30.13
2024-03-12T15:57:24.234Z,28.67
2024-03-12T15:59:50.770Z,29.30
2024-03-12T16:02:17.194Z,29.47
2024-03-12T16:04:44.375Z,29.07
2024-03-12T16:07:10.793Z,28.90
2024-03-12T16:09:37.395Z,28.87
2024-03-12T16:12:05.124Z,28.47
2024-03-12T16:14:32.111Z,28.57
2024-03-12T16:16:58.466Z,27.67
2024-03-12T16:19:24.858Z,29.83
2024-03-12T16:21:52.199Z,30.33
2024-03-12T16:24:18.626Z,29.30
2024-03-12T16:26:44.973Z,28.33
2024-03-12T16:29:11.594Z,30.87
2024-03-12T16:31:44.839Z,30.60
2024-03-12T16:34:11.571Z,31.37
2024-03-12T16:36:38.062Z,32.63
2024-03-12T16:39:05.522Z,33.17
2024-03-12T16:41:32.185Z,30.97
2024-03-12T16:43:59.446Z,32.97
2024-03-12T16:46:25.843Z,31.53
2024-03-12T16:48:53.497Z,32.27
2024-03-12T16:51:19.975Z,32.27
2024-03-12T16:53:46.510Z,32.13
2024-03-12T16:56:25.365Z,32.07
2024-03-12T16:58:52.923Z,31.43
2024-03-12T17:01:21.109Z,33.13
2024-03-12T17:03:48.074Z,34.33
2024-03-12T17:06:16.927Z,36.87
2024-03-12T17:08:43.529Z,32.70
2024-03-12T17:11:10.472Z,32.33
2024-03-12T17:13:40.150Z,31.17
2024-03-12T17:16:21.605Z,33.63
2024-03-12T17:18:48.276Z,32.63
2024-03-12T17:21:16.489Z,31.63
2024-03-12T17:23:43.886Z,33.93
2024-03-12T17:26:15.863Z,32.63
2024-03-12T17:28:43.991Z,32.37
2024-03-12T17:31:11.830Z,32.43
2024-03-12T17:33:38.517Z,32.53
2024-03-12T17:36:07.266Z,34.43
2024-03-12T17:38:36.125Z,33.07
2024-03-12T17:41:09.300Z,34.43
2024-03-12T17:43:37.800Z,36.50
2024-03-12T17:46:04.742Z,35.43
2024-03-12T17:48:36.149Z,34.27
2024-03-12T17:51:04.164Z,36.57
2024-03-12T17:53:31.453Z,34.43
2024-03-12T17:55:58.098Z,34.57
2024-03-12T17:58:24.790Z,35.00
2024-03-12T18:00:57.712Z,34.50
2024-03-12T18:03:24.692Z,33.70
2024-03-12T18:05:52.849Z,34.17
2024-03-12T18:08:26.201Z,35.00
2024-03-12T18:10:57.860Z,35.73
2024-03-12T18:13:24.591Z,36.77
2024-03-12T18:15:51.214Z,37.83
2024-03-12T18:18:17.662Z,36.43
2024-03-12T18:20:46.231Z,36.17
2024-03-12T18:23:15.446Z,36.63
2024-03-12T18:25:41.938Z,39.57
2024-03-12T18:28:08.753Z,38.20
2024-03-12T18:30:35.415Z,37.87
2024-03-12T18:33:02.175Z,35.40
2024-03-12T18:35:28.578Z,36.27
2024-03-12T18:37:55.650Z,34.30
2024-03-12T18:40:23.213Z,35.50
2024-03-12T18:42:50.565Z,35.07
2024-03-12T18:45:19.265Z,35.73
2024-03-12T18:47:48.813Z,35.20
2024-03-12T18:50:15.769Z,36.23
2024-03-12T18:52:49.704Z,36.97
2024-03-12T18:55:18.187Z,37.77
2024-03-12T18:57:46.202Z,40.77
2024-03-12T19:00:20.167Z,39.87
2024-03-12T19:02:47.783Z,39.47
2024-03-12T19:05:18.012Z,39.67
2024-03-12T19:07:52.366Z,38.10
2024-03-12T19:10:20.324Z,36.57
2024-03-12T19:12:47.361Z,36.63
2024-03-12T19:15:15.927Z,37.43
2024-03-12T19:17:45.188Z,40.27
2024-03-12T19:20:15.756Z,36.77
2024-03-12T19:22:50.232Z,38.63
2024-03-12T19:25:18.521Z,38.10
2024-03-12T19:27:46.632Z,39.03
2024-03-12T19:30:14.799Z,38.63
2024-03-12T19:33:19.901Z,37.53
2024-03-12T19:35:51.847Z,39.57
2024-03-12T19:38:18.967Z,37.53
2024-03-12T19:40:45.688Z,40.73
2024-03-12T19:43:12.513Z,43.07
2024-03-12T19:45:42.006Z,42.43
2024-03-12T19:48:09.663Z,43.60
2024-03-12T19:50:36.802Z,43.17
2024-03-12T19:53:04.432Z,45.63
2024-03-12T19:55:31.188Z,42.87
2024-03-12T19:58:00.873Z,40.53
2024-03-12T20:00:32.095Z,42.67
2024-03-12T20:03:00.457Z,41.07
2024-03-12T20:05:31.237Z,42.27
2024-03-12T20:07:58.860Z,39.50
2024-03-12T20:10:26.585Z,39.87
2024-03-12T20:12:56.463Z,40.57
2024-03-12T20:15:24.364Z,38.43
2024-03-12T20:17:51.966Z,38.40
2024-03-12T20:20:18.861Z,40.10
2024-03-12T20:22:47.597Z,40.03
2024-03-12T20:25:16.073Z,39.77
2024-03-12T20:27:42.592Z,40.77
2024-03-12T20:30:11.775Z,39.40
2024-03-12T20:32:38.644Z,42.23
2024-03-12T20:35:18.489Z,41.60
2024-03-12T20:37:45.959Z,41.60
2024-03-12T20:40:12.683Z,43.30
2024-03-12T20:42:40.406Z,43.80
2024-03-12T20:45:10.945Z,42.30
2024-03-12T20:47:41.028Z,40.63
2024-03-12T20:50:08.729Z,45.03
2024-03-12T20:52:38.950Z,45.70
2024-03-12T20:55:09.073Z,40.83
2024-03-12T20:57:36.682Z,40.57
2024-03-12T21:00:17.186Z,42.83
2024-03-12T21:02:46.710Z,40.83
2024-03-12T21:05:13.596Z,39.90
2024-03-12T21:07:40.296Z,41.33
2024-03-12T21:10:07.699Z,40.70
2024-03-12T21:12:35.107Z,39.80
2024-03-12T21:15:07.423Z,41.07
2024-03-12T21:17:35.349Z,40.87
2024-03-12T21:20:12.315Z,39.73
2024-03-12T21:22:39.344Z,38.90
2024-03-12T21:25:07.826Z,38.50
2024-03-12T21:27:34.366Z,37.63
2024-03-12T21:30:02.339Z,37.37
2024-03-12T21:32:28.775Z,36.50
2024-03-12T21:34:55.165Z,37.07
2024-03-12T21:37:21.657Z,34.17
2024-03-12T21:39:48.322Z,33.63
2024-03-12T21:42:17.318Z,32.93
2024-03-12T21:44:45.122Z,32.13
2024-03-12T21:47:11.658Z,33.57
2024-03-12T21:49:38.111Z,33.17
2024-03-12T21:52:05.684Z,31.97
2024-03-12T21:54:32.145Z,31.40
2024-03-12T21:56:58.566Z,32.00
2024-03-12T21:59:24.962Z,31.07
2024-03-12T22:01:51.344Z,30.07
2024-03-12T22:04:17.736Z,30.67
2024-03-12T22:06:44.280Z,29.77
2024-03-12T22:09:10.846Z,29.97
2024-03-12T22:11:39.543Z,30.13
2024-03-12T22:14:06.425Z,29.67
2024-03-12T22:16:32.854Z,29.17
2024-03-12T22:18:59.255Z,28.47
2024-03-12T22:21:26.300Z,29.00
2024-03-12T22:23:54.643Z,29.97
2024-03-12T22:26:21.068Z,29.20
2024-03-12T22:28:48.856Z,29.63
2024-03-12T22:31:16.132Z,29.83
2024-03-12T22:33:42.902Z,28.20
2024-03-12T22:36:11.977Z,28.20
2024-03-12T22:38:38.814Z,29.13
2024-03-12T22:41:05.637Z,28.37
2024-03-12T22:43:35.993Z,28.90
2024-03-12T22:46:07.220Z,26.60
2024-03-12T22:48:34.626Z,26.30
2024-03-12T22:51:01.970Z,26.57
2024-03-12T22:53:32.923Z,26.70
2024-03-12T22:55:59.946Z,24.67
2024-03-12T22:58:27.709Z,25.03
2024-03-12T23:00:58.080Z,26.63
2024-03-12T23:03:26.135Z,25.53
2024-03-12T23:05:53.065Z,25.97
2024-03-12T23:08:25.691Z,26.00
2024-03-12T23:10:53.148Z,26.03
2024-03-12T23:13:19.613Z,25.80
2024-03-12T23:15:46.292Z,25.00
2024-03-12T23:18:13.260Z,26.60
2024-03-12T23:20:41.204Z,26.07
2024-03-12T23:23:08.484Z,26.50
2024-03-12T23:25:35.699Z,25.17
2024-03-12T23:28:02.233Z,27.03
2024-03-12T23:30:28.989Z,26.23
2024-03-12T23:32:59.091Z,25.93
2024-03-12T23:35:26.226Z,26.13
2024-03-12T23:37:53.045Z,25.50
2024-03-12T23:40:19.466Z,27.40
2024-03-12T23:42:47.331Z,25.27
2024-03-12T23:45:13.818Z,26.17
2024-03-12T23:47:46.164Z,25.73
2024-03-12T23:50:13.168Z,24.80
2024-03-12T23:52:43.396Z,23.87
2024-03-12T23:55:10.666Z,24.53
2024-03-12T23:57:38.365Z,25.07
